Time;durP1;ratioP1;P1;durP2;ratioP2;P2;SDS_P1;SDS_P2;PMS_P1;PMS_P2;Temp;Humidity;BMP_temperature;BMP_pressure;BME280_temperature;BME280_humidity;BME280_pressure;Samples;Min_cycle;Max_cycle;Signal;HPM_P1;HPM_P2
2021/06/05 00:02:04;;;;;;;7.80;5.45;;;;;;;17.62;95.44;101079.45;713875;1202;115909;-71
2021/06/05 00:17:25;;;;;;;12.70;8.10;;;;;;;17.29;99.65;101077.52;714020;1199;114040;-71
2021/06/05 00:32:45;;;;;;;21.45;10.30;;;;;;;16.86;100.00;101067.86;714220;1203;115014;-72
2021/06/05 00:48:06;;;;;;;6.83;4.85;;;;;;;16.51;100.00;101051.94;713994;1199;115637;-72
2021/06/05 01:03:28;;;;;;;6.53;4.55;;;;;;;16.43;100.00;101081.83;722368;1199;115393;-72
2021/06/05 01:19:04;;;;;;;14.30;6.20;;;;;;;16.46;100.00;101096.58;713956;1203;115393;-71
2021/06/05 01:34:28;;;;;;;5.80;4.15;;;;;;;15.96;100.00;101082.09;714001;1200;115595;-72
2021/06/05 01:49:49;;;;;;;6.85;3.93;;;;;;;15.79;100.00;101060.73;714109;1199;115782;-72
2021/06/05 02:05:10;;;;;;;6.07;4.00;;;;;;;15.76;100.00;101031.95;714064;1177;114591;-71
2021/06/05 02:20:35;;;;;;;12.68;6.93;;;;;;;15.79;100.00;101036.11;713923;1199;114846;-72
2021/06/05 02:36:00;;;;;;;17.78;7.60;;;;;;;15.44;100.00;101030.64;715163;1203;116168;-72
2021/06/05 02:51:25;;;;;;;20.97;9.63;;;;;;;15.28;100.00;101011.95;714044;1202;115323;-72
2021/06/05 03:06:46;;;;;;;6.30;3.45;;;;;;;15.34;100.00;100999.97;713802;1202;115774;-71
2021/06/05 03:22:06;;;;;;;3.45;2.95;;;;;;;15.34;100.00;100995.50;713991;1200;115243;-72
2021/06/05 03:37:26;;;;;;;10.53;4.83;;;;;;;15.37;100.00;100979.33;714043;1199;115753;-72
2021/06/05 03:52:47;;;;;;;5.67;3.80;;;;;;;15.52;100.00;100970.88;714144;1200;115338;-72
2021/06/05 04:08:08;;;;;;;11.28;6.65;;;;;;;15.65;100.00;100976.62;714966;1199;115162;-72
2021/06/05 04:23:29;;;;;;;3.73;3.13;;;;;;;15.70;100.00;100953.19;714014;1199;114611;-72
2021/06/05 04:38:50;;;;;;;33.30;12.17;;;;;;;16.00;100.00;100979.44;714052;1199;115538;-72
2021/06/05 04:54:10;;;;;;;5.75;3.80;;;;;;;16.40;100.00;100981.50;713892;1199;115051;-72
2021/06/05 05:09:30;;;;;;;24.03;13.73;;;;;;;16.76;100.00;100978.73;716810;1166;114431;-71
2021/06/05 05:24:50;;;;;;;18.78;7.55;;;;;;;17.48;100.00;100990.72;714467;1202;116019;-72
2021/06/05 05:40:15;;;;;;;16.55;6.60;;;;;;;18.11;100.00;100983.14;714114;1200;114186;-72
2021/06/05 05:55:36;;;;;;;35.50;12.10;;;;;;;18.66;100.00;100991.31;714167;1199;114113;-73
2021/06/05 06:10:57;;;;;;;13.03;6.73;;;;;;;19.13;100.00;100998.45;714348;1203;115527;-72
2021/06/05 06:26:22;;;;;;;4.50;3.37;;;;;;;19.67;100.00;100997.61;714127;1204;115309;-73
2021/06/05 06:41:43;;;;;;;12.65;6.00;;;;;;;20.13;100.00;101011.93;714348;1199;115237;-75
2021/06/05 06:57:04;;;;;;;19.95;8.25;;;;;;;20.81;100.00;101020.71;714231;1203;115433;-74
2021/06/05 07:12:25;;;;;;;14.83;5.83;;;;;;;21.58;98.23;101010.56;714295;1202;115549;-71
2021/06/05 07:27:46;;;;;;;7.23;4.60;;;;;;;22.22;92.86;101006.14;714375;1203;114504;-76
2021/06/05 07:43:07;;;;;;;3.70;2.77;;;;;;;23.09;88.92;100996.77;714097;1200;115028;-73
2021/06/05 07:58:27;;;;;;;45.40;23.33;;;;;;;23.85;78.72;100978.78;714062;1202;113691;-76
2021/06/05 08:13:48;;;;;;;4.28;3.08;;;;;;;24.95;76.11;100971.14;714905;1199;113984;-76
2021/06/05 08:29:09;;;;;;;6.60;3.23;;;;;;;25.58;72.10;100975.72;714192;1202;114141;-72
2021/06/05 08:44:38;;;;;;;3.73;3.00;;;;;;;25.94;67.41;100967.98;714297;1200;114700;-73
2021/06/05 09:00:10;;;;;;;4.65;2.73;;;;;;;25.91;63.64;100963.88;714526;1203;113792;-76
2021/06/05 09:15:34;;;;;;;7.33;3.98;;;;;;;26.26;62.45;100966.03;721868;1201;113768;-74
2021/06/05 09:31:22;;;;;;;9.20;2.28;;;;;;;26.73;61.29;100965.53;719354;1202;114678;-79
2021/06/05 09:47:06;;;;;;;4.13;2.70;;;;;;;27.63;59.65;100947.66;714335;1200;114791;-78
2021/06/05 10:02:29;;;;;;;3.10;2.40;;;;;;;28.72;60.09;100943.59;716183;1184;113888;-80
2021/06/05 10:18:02;;;;;;;7.50;2.33;;;;;;;28.75;55.83;100931.48;714138;1199;113918;-79
2021/06/05 10:33:53;;;;;;;7.23;3.25;;;;;;;28.95;55.28;100914.84;715002;1203;114363;-79
2021/06/05 10:49:23;;;;;;;5.85;3.85;;;;;;;29.67;54.34;100910.64;714185;1180;113682;-77
2021/06/05 11:04:45;;;;;;;2.80;2.25;;;;;;;29.41;53.62;100895.11;714657;1199;115464;-78
2021/06/05 11:20:08;;;;;;;2.80;2.20;;;;;;;29.52;52.24;100904.99;715556;1200;113886;-78
2021/06/05 11:35:38;;;;;;;3.50;2.30;;;;;;;29.19;51.65;100887.70;722426;1200;113929;-78
2021/06/05 11:51:26;;;;;;;2.10;1.90;;;;;;;29.97;50.35;100885.13;714089;1200;115027;-80
2021/06/05 12:06:49;;;;;;;2.53;1.97;;;;;;;29.79;50.05;100885.39;714102;1177;113654;-78
2021/06/05 12:22:26;;;;;;;2.15;1.75;;;;;;;29.85;48.53;100881.67;714180;1203;114848;-78
2021/06/05 12:37:57;;;;;;;4.73;2.55;;;;;;;30.87;46.88;100857.70;714420;1179;113653;-78
2021/06/05 12:53:22;;;;;;;2.85;2.00;;;;;;;30.75;46.22;100854.36;714030;1202;115478;-75
2021/06/05 13:08:46;;;;;;;3.07;2.23;;;;;;;30.12;45.74;100835.00;716228;1200;114907;-74
2021/06/05 13:24:17;;;;;;;5.60;2.88;;;;;;;30.02;45.36;100814.05;714213;1199;115165;-73
2021/06/05 13:39:38;;;;;;;2.90;2.60;;;;;;;29.69;45.30;100802.27;714325;1200;114153;-72
2021/06/05 13:55:14;;;;;;;3.65;2.88;;;;;;;28.19;46.26;100804.39;715042;1199;115001;-73
2021/06/05 14:10:36;;;;;;;6.23;3.60;;;;;;;27.07;49.36;100788.23;731299;1199;114510;-74
2021/06/05 14:25:57;;;;;;;4.33;2.50;;;;;;;28.69;48.33;100782.15;714799;1199;115198;-72
2021/06/05 14:41:18;;;;;;;4.85;3.33;;;;;;;29.90;47.25;100789.04;714165;1203;114180;-71
2021/06/05 14:56:40;;;;;;;7.05;3.03;;;;;;;29.85;46.12;100768.13;714034;1203;114935;-70
2021/06/05 15:12:00;;;;;;;43.43;33.40;;;;;;;30.27;45.48;100759.41;714021;1200;115505;-71
2021/06/05 15:27:21;;;;;;;9.18;6.35;;;;;;;29.83;45.76;100751.35;714277;1199;114411;-72
2021/06/05 15:42:42;;;;;;;7.78;5.23;;;;;;;29.67;46.51;100748.46;714319;1202;115022;-75
2021/06/05 15:58:03;;;;;;;12.78;6.65;;;;;;;29.11;47.04;100744.98;715111;1199;115556;-73
2021/06/05 16:13:27;;;;;;;8.73;5.15;;;;;;;27.60;48.91;100742.58;714178;1201;113810;-75
2021/06/05 16:28:48;;;;;;;12.27;6.13;;;;;;;27.63;47.87;100731.31;714212;1202;113783;-75
2021/06/05 16:44:09;;;;;;;20.52;7.50;;;;;;;27.54;47.89;100741.63;714318;1200;114550;-75
2021/06/05 16:59:29;;;;;;;8.43;3.40;;;;;;;27.13;49.26;100757.67;714062;1178;113801;-73
2021/06/05 17:14:50;;;;;;;8.63;4.87;;;;;;;26.70;49.96;100756.91;714229;1200;116526;-73
2021/06/05 17:30:12;;;;;;;9.33;4.93;;;;;;;25.90;51.23;100768.75;714265;1202;115175;-73
2021/06/05 17:45:38;;;;;;;6.75;3.98;;;;;;;25.25;52.51;100765.48;714322;1200;115157;-73
2021/06/05 18:01:13;;;;;;;10.27;4.10;;;;;;;24.70;54.27;100776.06;714008;1200;114125;-74
2021/06/05 18:16:37;;;;;;;9.53;4.60;;;;;;;23.80;55.96;100783.05;714445;1202;114631;-73
2021/06/05 18:31:59;;;;;;;6.90;3.73;;;;;;;23.21;57.38;100790.15;714551;1203;113817;-71
2021/06/05 18:47:20;;;;;;;10.27;5.60;;;;;;;22.59;58.45;100811.66;714069;1177;115529;-70
2021/06/05 19:02:42;;;;;;;10.48;5.38;;;;;;;21.84;59.68;100835.56;714446;1177;114865;-72
2021/06/05 19:18:08;;;;;;;11.78;6.63;;;;;;;21.24;60.03;100855.42;714436;1200;114369;-72
2021/06/05 19:33:39;;;;;;;27.80;12.55;;;;;;;20.90;61.16;100854.28;714460;1199;115235;-71
2021/06/05 19:48:59;;;;;;;19.65;10.13;;;;;;;20.56;61.90;100866.41;714130;1199;115397;-71
2021/06/05 20:04:21;;;;;;;38.38;15.43;;;;;;;19.98;63.44;100876.93;714127;1199;114686;-71
2021/06/05 20:19:41;;;;;;;25.85;12.85;;;;;;;19.65;64.38;100873.72;714960;1177;114517;-71
2021/06/05 20:35:05;;;;;;;17.30;8.77;;;;;;;19.11;65.32;100878.16;716596;1200;114928;-72
2021/06/05 20:50:30;;;;;;;33.80;15.77;;;;;;;18.90;66.29;100881.45;714668;1200;115653;-72
2021/06/05 21:05:53;;;;;;;22.58;9.23;;;;;;;18.59;67.71;100884.90;714412;1200;115364;-73
2021/06/05 21:21:15;;;;;;;10.88;6.43;;;;;;;18.25;68.91;100883.37;714503;1202;114745;-73
2021/06/05 21:36:37;;;;;;;23.53;11.18;;;;;;;17.82;70.21;100882.80;714490;1174;113957;-74
2021/06/05 21:51:58;;;;;;;17.23;8.88;;;;;;;17.74;71.02;100881.80;714879;1199;114788;-74
2021/06/05 22:07:19;;;;;;;10.33;6.38;;;;;;;17.46;72.58;100873.38;714486;1203;115344;-73
2021/06/05 22:22:41;;;;;;;13.90;8.63;;;;;;;17.13;74.10;100876.02;713952;1200;114601;-73
2021/06/05 22:38:03;;;;;;;25.43;10.65;;;;;;;16.75;76.35;100880.88;714258;1199;115354;-74
2021/06/05 22:53:24;;;;;;;23.63;11.35;;;;;;;16.42;78.93;100876.28;714025;1200;114674;-74
2021/06/05 23:08:45;;;;;;;14.93;7.33;;;;;;;16.13;80.03;100866.88;714104;1185;115704;-73
2021/06/05 23:24:08;;;;;;;19.30;8.53;;;;;;;15.82;81.13;100868.34;714428;1202;115155;-73
2021/06/05 23:39:29;;;;;;;25.93;12.35;;;;;;;15.58;82.58;100860.05;714166;1175;115122;-72
2021/06/05 23:54:50;;;;;;;23.20;11.07;;;;;;;15.31;84.13;100861.01;714225;1202;115402;-71
